sensor_id;sensor_type;location;lat;lon;timestamp;P1;durP1;ratioP1;P2;durP2;ratioP2
61150;SDS011;47029;50.994;2.876;2022-10-26T00:05:27;11.88;;;4.90;;
61150;SDS011;47029;50.994;2.876;2022-10-26T00:08:00;13.45;;;4.82;;
61150;SDS011;47029;50.994;2.876;2022-10-26T00:10:29;16.50;;;4.70;;
61150;SDS011;47029;50.994;2.876;2022-10-26T00:12:59;12.52;;;4.93;;
61150;SDS011;47029;50.994;2.876;2022-10-26T00:15:31;11.45;;;4.82;;
61150;SDS011;47029;50.994;2.876;2022-10-26T00:18:32;11.88;;;4.60;;
61150;SDS011;47029;50.994;2.876;2022-10-26T00:21:02;12.05;;;4.78;;
61150;SDS011;47029;50.994;2.876;2022-10-26T00:23:32;14.32;;;4.93;;
61150;SDS011;47029;50.994;2.876;2022-10-26T00:25:57;11.82;;;4.10;;
61150;SDS011;47029;50.994;2.876;2022-10-26T00:28:29;13.93;;;4.40;;
61150;SDS011;47029;50.994;2.876;2022-10-26T00:30:59;10.77;;;4.20;;
61150;SDS011;47029;50.994;2.876;2022-10-26T00:33:27;11.80;;;4.32;;
61150;SDS011;47029;50.994;2.876;2022-10-26T00:36:14;12.65;;;4.03;;
61150;SDS011;47029;50.994;2.876;2022-10-26T00:38:56;11.93;;;3.90;;
61150;SDS011;47029;50.994;2.876;2022-10-26T00:41:27;12.80;;;4.03;;
61150;SDS011;47029;50.994;2.876;2022-10-26T00:49:54;10.63;;;4.43;;
61150;SDS011;47029;50.994;2.876;2022-10-26T00:52:36;14.15;;;4.50;;
61150;SDS011;47029;50.994;2.876;2022-10-26T00:55:11;12.23;;;4.10;;
61150;SDS011;47029;50.994;2.876;2022-10-26T00:57:46;12.18;;;3.95;;
61150;SDS011;47029;50.994;2.876;2022-10-26T01:00:27;12.15;;;4.30;;
61150;SDS011;47029;50.994;2.876;2022-10-26T01:03:00;14.02;;;5.35;;
61150;SDS011;47029;50.994;2.876;2022-10-26T01:05:35;12.27;;;4.72;;
61150;SDS011;47029;50.994;2.876;2022-10-26T01:08:27;12.73;;;4.30;;
61150;SDS011;47029;50.994;2.876;2022-10-26T01:11:01;11.30;;;4.43;;
61150;SDS011;47029;50.994;2.876;2022-10-26T01:13:37;11.95;;;4.10;;
61150;SDS011;47029;50.994;2.876;2022-10-26T01:19:36;11.07;;;4.55;;
61150;SDS011;47029;50.994;2.876;2022-10-26T01:22:38;11.85;;;4.53;;
61150;SDS011;47029;50.994;2.876;2022-10-26T01:28:40;11.27;;;5.03;;
61150;SDS011;47029;50.994;2.876;2022-10-26T01:31:25;13.40;;;4.20;;
61150;SDS011;47029;50.994;2.876;2022-10-26T01:34:33;11.35;;;4.05;;
61150;SDS011;47029;50.994;2.876;2022-10-26T01:37:20;11.43;;;4.30;;
61150;SDS011;47029;50.994;2.876;2022-10-26T01:40:10;8.77;;;3.90;;
61150;SDS011;47029;50.994;2.876;2022-10-26T01:42:54;11.23;;;4.07;;
61150;SDS011;47029;50.994;2.876;2022-10-26T01:45:50;11.20;;;4.10;;
61150;SDS011;47029;50.994;2.876;2022-10-26T01:48:21;12.23;;;4.15;;
61150;SDS011;47029;50.994;2.876;2022-10-26T01:50:57;15.63;;;4.10;;
61150;SDS011;47029;50.994;2.876;2022-10-26T01:53:26;9.63;;;3.80;;
61150;SDS011;47029;50.994;2.876;2022-10-26T01:56:02;10.57;;;4.18;;
61150;SDS011;47029;50.994;2.876;2022-10-26T01:59:32;13.05;;;4.30;;
61150;SDS011;47029;50.994;2.876;2022-10-26T02:14:08;9.13;;;3.60;;
61150;SDS011;47029;50.994;2.876;2022-10-26T02:20:24;8.82;;;3.20;;
61150;SDS011;47029;50.994;2.876;2022-10-26T02:25:50;12.43;;;3.40;;
61150;SDS011;47029;50.994;2.876;2022-10-26T02:28:31;8.98;;;3.35;;
61150;SDS011;47029;50.994;2.876;2022-10-26T02:31:03;10.57;;;3.40;;
61150;SDS011;47029;50.994;2.876;2022-10-26T02:33:46;13.30;;;3.83;;
61150;SDS011;47029;50.994;2.876;2022-10-26T02:36:27;12.00;;;3.85;;
61150;SDS011;47029;50.994;2.876;2022-10-26T02:38:56;10.63;;;3.62;;
61150;SDS011;47029;50.994;2.876;2022-10-26T02:41:30;11.82;;;4.10;;
61150;SDS011;47029;50.994;2.876;2022-10-26T02:44:03;9.23;;;3.60;;
61150;SDS011;47029;50.994;2.876;2022-10-26T02:46:38;9.15;;;3.50;;
61150;SDS011;47029;50.994;2.876;2022-10-26T02:49:13;10.32;;;3.28;;
61150;SDS011;47029;50.994;2.876;2022-10-26T02:51:49;11.55;;;3.78;;
61150;SDS011;47029;50.994;2.876;2022-10-26T02:54:30;10.73;;;3.60;;
61150;SDS011;47029;50.994;2.876;2022-10-26T03:00:31;9.55;;;3.35;;
61150;SDS011;47029;50.994;2.876;2022-10-26T03:03:10;8.45;;;3.40;;
61150;SDS011;47029;50.994;2.876;2022-10-26T03:05:53;9.38;;;3.20;;
61150;SDS011;47029;50.994;2.876;2022-10-26T03:08:22;10.63;;;3.67;;
61150;SDS011;47029;50.994;2.876;2022-10-26T03:10:53;15.02;;;3.65;;
61150;SDS011;47029;50.994;2.876;2022-10-26T03:13:38;9.05;;;3.00;;
61150;SDS011;47029;50.994;2.876;2022-10-26T03:16:19;9.85;;;3.15;;
61150;SDS011;47029;50.994;2.876;2022-10-26T03:19:06;13.80;;;3.22;;
61150;SDS011;47029;50.994;2.876;2022-10-26T03:21:43;9.52;;;3.00;;
61150;SDS011;47029;50.994;2.876;2022-10-26T03:24:18;9.65;;;3.10;;
61150;SDS011;47029;50.994;2.876;2022-10-26T03:26:47;9.20;;;2.95;;
61150;SDS011;47029;50.994;2.876;2022-10-26T03:29:14;9.52;;;3.10;;
61150;SDS011;47029;50.994;2.876;2022-10-26T03:35:21;8.68;;;3.05;;
61150;SDS011;47029;50.994;2.876;2022-10-26T03:37:54;7.65;;;2.83;;
61150;SDS011;47029;50.994;2.876;2022-10-26T03:40:25;8.10;;;3.15;;
61150;SDS011;47029;50.994;2.876;2022-10-26T03:42:53;8.30;;;3.00;;
61150;SDS011;47029;50.994;2.876;2022-10-26T03:45:19;9.05;;;3.05;;
61150;SDS011;47029;50.994;2.876;2022-10-26T03:47:58;9.85;;;3.35;;
61150;SDS011;47029;50.994;2.876;2022-10-26T03:50:25;9.45;;;3.00;;
61150;SDS011;47029;50.994;2.876;2022-10-26T03:53:06;12.57;;;3.22;;
61150;SDS011;47029;50.994;2.876;2022-10-26T03:55:44;9.93;;;3.15;;
61150;SDS011;47029;50.994;2.876;2022-10-26T03:58:11;8.85;;;3.10;;
61150;SDS011;47029;50.994;2.876;2022-10-26T04:00:37;8.52;;;3.17;;
61150;SDS011;47029;50.994;2.876;2022-10-26T04:03:12;12.70;;;3.10;;
61150;SDS011;47029;50.994;2.876;2022-10-26T04:05:41;9.20;;;3.08;;
61150;SDS011;47029;50.994;2.876;2022-10-26T04:08:07;9.45;;;3.20;;
61150;SDS011;47029;50.994;2.876;2022-10-26T04:10:44;8.35;;;3.08;;
61150;SDS011;47029;50.994;2.876;2022-10-26T04:13:13;13.62;;;3.40;;
61150;SDS011;47029;50.994;2.876;2022-10-26T04:15:39;8.50;;;3.08;;
61150;SDS011;47029;50.994;2.876;2022-10-26T04:21:01;14.25;;;3.30;;
61150;SDS011;47029;50.994;2.876;2022-10-26T04:23:29;10.25;;;3.35;;
61150;SDS011;47029;50.994;2.876;2022-10-26T04:26:07;9.70;;;3.10;;
61150;SDS011;47029;50.994;2.876;2022-10-26T04:28:46;10.65;;;3.40;;
61150;SDS011;47029;50.994;2.876;2022-10-26T04:31:37;8.40;;;2.90;;
61150;SDS011;47029;50.994;2.876;2022-10-26T04:34:09;10.43;;;3.40;;
61150;SDS011;47029;50.994;2.876;2022-10-26T04:36:35;7.72;;;3.08;;
61150;SDS011;47029;50.994;2.876;2022-10-26T04:39:22;11.57;;;3.45;;
61150;SDS011;47029;50.994;2.876;2022-10-26T04:41:57;10.50;;;3.28;;
61150;SDS011;47029;50.994;2.876;2022-10-26T04:44:29;8.97;;;3.27;;
61150;SDS011;47029;50.994;2.876;2022-10-26T04:46:55;8.13;;;3.35;;
61150;SDS011;47029;50.994;2.876;2022-10-26T04:49:27;10.60;;;3.55;;
61150;SDS011;47029;50.994;2.876;2022-10-26T04:52:08;9.48;;;3.42;;
61150;SDS011;47029;50.994;2.876;2022-10-26T04:54:51;9.65;;;3.30;;
61150;SDS011;47029;50.994;2.876;2022-10-26T04:57:29;10.80;;;3.47;;
61150;SDS011;47029;50.994;2.876;2022-10-26T05:00:02;8.15;;;3.15;;
61150;SDS011;47029;50.994;2.876;2022-10-26T05:02:38;9.50;;;3.10;;
61150;SDS011;47029;50.994;2.876;2022-10-26T05:05:04;8.25;;;3.30;;
61150;SDS011;47029;50.994;2.876;2022-10-26T05:07:42;8.07;;;3.47;;
61150;SDS011;47029;50.994;2.876;2022-10-26T05:10:08;9.43;;;3.40;;
61150;SDS011;47029;50.994;2.876;2022-10-26T05:12:51;9.73;;;3.30;;
61150;SDS011;47029;50.994;2.876;2022-10-26T05:15:26;10.13;;;3.72;;
61150;SDS011;47029;50.994;2.876;2022-10-26T05:17:57;9.88;;;3.50;;
61150;SDS011;47029;50.994;2.876;2022-10-26T05:20:30;9.25;;;3.30;;
61150;SDS011;47029;50.994;2.876;2022-10-26T05:23:01;10.45;;;3.25;;
61150;SDS011;47029;50.994;2.876;2022-10-26T05:25:33;9.07;;;3.12;;
61150;SDS011;47029;50.994;2.876;2022-10-26T05:28:02;11.75;;;3.55;;
61150;SDS011;47029;50.994;2.876;2022-10-26T05:30:57;11.68;;;3.78;;
61150;SDS011;47029;50.994;2.876;2022-10-26T05:33:24;10.63;;;3.95;;
61150;SDS011;47029;50.994;2.876;2022-10-26T05:35:52;13.50;;;3.90;;
61150;SDS011;47029;50.994;2.876;2022-10-26T05:38:19;9.90;;;3.47;;
61150;SDS011;47029;50.994;2.876;2022-10-26T05:40:48;10.93;;;3.70;;
61150;SDS011;47029;50.994;2.876;2022-10-26T05:43:20;9.50;;;4.03;;
61150;SDS011;47029;50.994;2.876;2022-10-26T05:45:48;9.93;;;3.70;;
61150;SDS011;47029;50.994;2.876;2022-10-26T05:48:14;9.60;;;3.80;;
61150;SDS011;47029;50.994;2.876;2022-10-26T05:50:40;11.50;;;3.37;;
61150;SDS011;47029;50.994;2.876;2022-10-26T05:53:06;10.30;;;4.07;;
61150;SDS011;47029;50.994;2.876;2022-10-26T05:55:32;10.32;;;3.85;;
61150;SDS011;47029;50.994;2.876;2022-10-26T05:57:59;10.65;;;3.72;;
61150;SDS011;47029;50.994;2.876;2022-10-26T06:00:25;11.07;;;3.83;;
61150;SDS011;47029;50.994;2.876;2022-10-26T06:03:11;11.25;;;3.80;;
61150;SDS011;47029;50.994;2.876;2022-10-26T06:05:51;11.90;;;4.10;;
61150;SDS011;47029;50.994;2.876;2022-10-26T06:08:22;10.65;;;3.85;;
61150;SDS011;47029;50.994;2.876;2022-10-26T06:10:53;10.40;;;4.22;;
61150;SDS011;47029;50.994;2.876;2022-10-26T06:13:21;13.20;;;4.05;;
61150;SDS011;47029;50.994;2.876;2022-10-26T06:24:28;11.32;;;4.50;;
61150;SDS011;47029;50.994;2.876;2022-10-26T06:27:03;9.75;;;4.05;;
61150;SDS011;47029;50.994;2.876;2022-10-26T06:32:25;11.43;;;4.68;;
61150;SDS011;47029;50.994;2.876;2022-10-26T06:35:13;11.95;;;4.25;;
61150;SDS011;47029;50.994;2.876;2022-10-26T06:37:50;13.48;;;5.35;;
61150;SDS011;47029;50.994;2.876;2022-10-26T06:40:18;12.98;;;4.57;;
61150;SDS011;47029;50.994;2.876;2022-10-26T06:42:50;11.52;;;4.22;;
61150;SDS011;47029;50.994;2.876;2022-10-26T06:45:16;8.95;;;3.95;;
61150;SDS011;47029;50.994;2.876;2022-10-26T06:50:51;10.73;;;4.37;;
61150;SDS011;47029;50.994;2.876;2022-10-26T06:55:49;11.75;;;3.92;;
61150;SDS011;47029;50.994;2.876;2022-10-26T06:58:16;14.38;;;4.30;;
61150;SDS011;47029;50.994;2.876;2022-10-26T07:00:48;12.57;;;4.07;;
61150;SDS011;47029;50.994;2.876;2022-10-26T07:03:16;11.48;;;4.10;;
61150;SDS011;47029;50.994;2.876;2022-10-26T07:05:42;10.57;;;3.80;;
61150;SDS011;47029;50.994;2.876;2022-10-26T07:08:09;9.48;;;4.00;;
61150;SDS011;47029;50.994;2.876;2022-10-26T07:10:34;11.05;;;4.40;;
61150;SDS011;47029;50.994;2.876;2022-10-26T07:13:06;12.85;;;4.35;;
61150;SDS011;47029;50.994;2.876;2022-10-26T07:15:34;11.60;;;4.40;;
61150;SDS011;47029;50.994;2.876;2022-10-26T07:18:01;11.77;;;4.07;;
61150;SDS011;47029;50.994;2.876;2022-10-26T07:20:29;11.73;;;4.47;;
61150;SDS011;47029;50.994;2.876;2022-10-26T07:22:56;10.65;;;3.97;;
61150;SDS011;47029;50.994;2.876;2022-10-26T07:25:25;13.77;;;4.37;;
61150;SDS011;47029;50.994;2.876;2022-10-26T07:27:59;12.77;;;4.20;;
61150;SDS011;47029;50.994;2.876;2022-10-26T07:30:26;11.07;;;4.18;;
61150;SDS011;47029;50.994;2.876;2022-10-26T07:33:04;11.63;;;3.97;;
61150;SDS011;47029;50.994;2.876;2022-10-26T07:38:05;9.57;;;3.60;;
61150;SDS011;47029;50.994;2.876;2022-10-26T07:40:36;12.18;;;3.72;;
61150;SDS011;47029;50.994;2.876;2022-10-26T07:43:02;12.00;;;3.80;;
61150;SDS011;47029;50.994;2.876;2022-10-26T07:45:28;11.07;;;3.67;;
61150;SDS011;47029;50.994;2.876;2022-10-26T07:47:55;10.82;;;3.83;;
61150;SDS011;47029;50.994;2.876;2022-10-26T07:50:21;9.75;;;3.62;;
61150;SDS011;47029;50.994;2.876;2022-10-26T07:52:48;12.77;;;3.95;;
61150;SDS011;47029;50.994;2.876;2022-10-26T07:55:34;8.80;;;3.53;;
61150;SDS011;47029;50.994;2.876;2022-10-26T07:58:00;13.48;;;3.70;;
61150;SDS011;47029;50.994;2.876;2022-10-26T08:00:25;12.77;;;3.78;;
61150;SDS011;47029;50.994;2.876;2022-10-26T08:02:52;13.23;;;3.87;;
61150;SDS011;47029;50.994;2.876;2022-10-26T08:05:21;11.48;;;3.67;;
61150;SDS011;47029;50.994;2.876;2022-10-26T08:07:47;11.57;;;3.80;;
61150;SDS011;47029;50.994;2.876;2022-10-26T08:10:13;11.65;;;4.10;;
61150;SDS011;47029;50.994;2.876;2022-10-26T08:12:43;10.05;;;3.85;;
61150;SDS011;47029;50.994;2.876;2022-10-26T08:15:09;10.45;;;4.00;;
61150;SDS011;47029;50.994;2.876;2022-10-26T08:17:36;10.07;;;3.95;;
61150;SDS011;47029;50.994;2.876;2022-10-26T08:20:02;10.43;;;3.70;;
61150;SDS011;47029;50.994;2.876;2022-10-26T08:22:28;10.18;;;3.60;;
61150;SDS011;47029;50.994;2.876;2022-10-26T08:24:57;9.82;;;3.80;;
61150;SDS011;47029;50.994;2.876;2022-10-26T08:27:25;11.07;;;3.78;;
61150;SDS011;47029;50.994;2.876;2022-10-26T08:29:51;12.65;;;4.10;;
61150;SDS011;47029;50.994;2.876;2022-10-26T08:32:17;10.18;;;3.95;;
61150;SDS011;47029;50.994;2.876;2022-10-26T08:34:43;11.45;;;4.00;;
61150;SDS011;47029;50.994;2.876;2022-10-26T08:37:09;11.45;;;3.83;;
61150;SDS011;47029;50.994;2.876;2022-10-26T08:39:38;9.82;;;3.80;;
61150;SDS011;47029;50.994;2.876;2022-10-26T08:44:43;11.38;;;3.80;;
61150;SDS011;47029;50.994;2.876;2022-10-26T08:50:09;9.27;;;3.97;;
61150;SDS011;47029;50.994;2.876;2022-10-26T08:52:51;10.50;;;3.80;;
61150;SDS011;47029;50.994;2.876;2022-10-26T08:55:24;10.60;;;3.50;;
61150;SDS011;47029;50.994;2.876;2022-10-26T08:57:53;9.63;;;3.65;;
61150;SDS011;47029;50.994;2.876;2022-10-26T09:00:21;11.25;;;3.50;;
61150;SDS011;47029;50.994;2.876;2022-10-26T09:02:52;23.60;;;4.32;;
61150;SDS011;47029;50.994;2.876;2022-10-26T09:05:22;10.40;;;3.58;;
61150;SDS011;47029;50.994;2.876;2022-10-26T09:08:01;10.63;;;3.50;;
61150;SDS011;47029;50.994;2.876;2022-10-26T09:16:14;14.60;;;4.03;;
61150;SDS011;47029;50.994;2.876;2022-10-26T09:24:38;9.65;;;3.75;;
61150;SDS011;47029;50.994;2.876;2022-10-26T09:27:19;12.30;;;3.58;;
61150;SDS011;47029;50.994;2.876;2022-10-26T09:29:50;13.55;;;3.80;;
61150;SDS011;47029;50.994;2.876;2022-10-26T09:32:33;9.93;;;3.42;;
61150;SDS011;47029;50.994;2.876;2022-10-26T09:35:03;10.40;;;3.12;;
61150;SDS011;47029;50.994;2.876;2022-10-26T09:37:41;8.82;;;3.60;;
61150;SDS011;47029;50.994;2.876;2022-10-26T09:40:24;8.60;;;3.12;;
61150;SDS011;47029;50.994;2.876;2022-10-26T09:42:58;10.45;;;3.30;;
61150;SDS011;47029;50.994;2.876;2022-10-26T09:48:10;9.77;;;3.20;;
61150;SDS011;47029;50.994;2.876;2022-10-26T09:50:41;9.57;;;2.97;;
61150;SDS011;47029;50.994;2.876;2022-10-26T09:53:14;8.77;;;3.20;;
61150;SDS011;47029;50.994;2.876;2022-10-26T09:55:41;9.05;;;3.05;;
61150;SDS011;47029;50.994;2.876;2022-10-26T09:58:17;10.07;;;3.20;;
61150;SDS011;47029;50.994;2.876;2022-10-26T10:00:48;9.10;;;3.10;;
61150;SDS011;47029;50.994;2.876;2022-10-26T10:03:26;8.82;;;2.87;;
61150;SDS011;47029;50.994;2.876;2022-10-26T10:05:53;10.45;;;3.37;;
61150;SDS011;47029;50.994;2.876;2022-10-26T10:12:00;9.23;;;2.83;;
61150;SDS011;47029;50.994;2.876;2022-10-26T10:14:36;11.93;;;3.12;;
61150;SDS011;47029;50.994;2.876;2022-10-26T10:17:19;11.85;;;3.17;;
61150;SDS011;47029;50.994;2.876;2022-10-26T10:19:54;11.60;;;3.40;;
61150;SDS011;47029;50.994;2.876;2022-10-26T10:22:31;10.40;;;3.17;;
61150;SDS011;47029;50.994;2.876;2022-10-26T10:25:20;9.25;;;2.80;;
61150;SDS011;47029;50.994;2.876;2022-10-26T10:27:55;9.18;;;2.70;;
61150;SDS011;47029;50.994;2.876;2022-10-26T10:30:30;18.92;;;3.45;;
61150;SDS011;47029;50.994;2.876;2022-10-26T10:33:04;8.52;;;2.70;;
61150;SDS011;47029;50.994;2.876;2022-10-26T10:35:45;10.60;;;3.20;;
61150;SDS011;47029;50.994;2.876;2022-10-26T10:38:19;8.70;;;2.85;;
61150;SDS011;47029;50.994;2.876;2022-10-26T10:40:49;10.55;;;2.90;;
61150;SDS011;47029;50.994;2.876;2022-10-26T10:43:43;8.63;;;2.80;;
61150;SDS011;47029;50.994;2.876;2022-10-26T10:46:29;8.85;;;2.90;;
61150;SDS011;47029;50.994;2.876;2022-10-26T10:51:49;8.65;;;3.10;;
61150;SDS011;47029;50.994;2.876;2022-10-26T10:54:35;12.57;;;3.10;;
61150;SDS011;47029;50.994;2.876;2022-10-26T11:00:43;7.93;;;2.70;;
61150;SDS011;47029;50.994;2.876;2022-10-26T11:03:34;10.27;;;2.42;;
61150;SDS011;47029;50.994;2.876;2022-10-26T11:06:20;10.63;;;2.67;;
61150;SDS011;47029;50.994;2.876;2022-10-26T11:11:45;9.75;;;2.62;;
61150;SDS011;47029;50.994;2.876;2022-10-26T11:20:03;10.20;;;2.80;;
61150;SDS011;47029;50.994;2.876;2022-10-26T11:23:17;8.00;;;2.53;;
61150;SDS011;47029;50.994;2.876;2022-10-26T11:25:56;8.07;;;3.00;;
61150;SDS011;47029;50.994;2.876;2022-10-26T11:28:34;9.02;;;3.30;;
61150;SDS011;47029;50.994;2.876;2022-10-26T11:31:13;10.98;;;3.03;;
61150;SDS011;47029;50.994;2.876;2022-10-26T11:34:03;14.05;;;2.87;;
61150;SDS011;47029;50.994;2.876;2022-10-26T11:36:35;8.50;;;2.58;;
61150;SDS011;47029;50.994;2.876;2022-10-26T11:39:13;8.18;;;2.70;;
61150;SDS011;47029;50.994;2.876;2022-10-26T11:41:54;8.45;;;2.62;;
61150;SDS011;47029;50.994;2.876;2022-10-26T11:44:33;8.50;;;2.70;;
61150;SDS011;47029;50.994;2.876;2022-10-26T11:47:36;7.75;;;2.70;;
61150;SDS011;47029;50.994;2.876;2022-10-26T11:52:48;11.38;;;3.30;;
61150;SDS011;47029;50.994;2.876;2022-10-26T11:55:30;10.73;;;3.03;;
61150;SDS011;47029;50.994;2.876;2022-10-26T11:58:05;7.47;;;2.37;;
61150;SDS011;47029;50.994;2.876;2022-10-26T12:00:48;9.00;;;2.45;;
61150;SDS011;47029;50.994;2.876;2022-10-26T12:03:36;9.93;;;2.80;;
61150;SDS011;47029;50.994;2.876;2022-10-26T12:06:07;7.35;;;2.30;;
61150;SDS011;47029;50.994;2.876;2022-10-26T12:14:38;9.98;;;2.72;;
61150;SDS011;47029;50.994;2.876;2022-10-26T12:17:18;8.40;;;2.65;;
61150;SDS011;47029;50.994;2.876;2022-10-26T12:22:49;10.48;;;2.50;;
61150;SDS011;47029;50.994;2.876;2022-10-26T12:48:46;8.73;;;3.05;;
61150;SDS011;47029;50.994;2.876;2022-10-26T12:56:27;10.85;;;3.83;;
61150;SDS011;47029;50.994;2.876;2022-10-26T13:07:20;11.38;;;2.80;;
61150;SDS011;47029;50.994;2.876;2022-10-26T13:10:05;7.72;;;2.40;;
61150;SDS011;47029;50.994;2.876;2022-10-26T13:12:52;8.02;;;3.03;;
61150;SDS011;47029;50.994;2.876;2022-10-26T13:15:22;8.45;;;2.58;;
61150;SDS011;47029;50.994;2.876;2022-10-26T13:20:29;7.55;;;2.50;;
61150;SDS011;47029;50.994;2.876;2022-10-26T13:23:00;7.80;;;2.28;;
61150;SDS011;47029;50.994;2.876;2022-10-26T13:25:30;10.25;;;2.78;;
61150;SDS011;47029;50.994;2.876;2022-10-26T13:28:28;6.15;;;2.10;;
61150;SDS011;47029;50.994;2.876;2022-10-26T13:33:59;8.90;;;2.67;;
61150;SDS011;47029;50.994;2.876;2022-10-26T13:36:42;7.43;;;2.47;;
61150;SDS011;47029;50.994;2.876;2022-10-26T13:39:28;8.25;;;2.45;;
61150;SDS011;47029;50.994;2.876;2022-10-26T13:41:59;7.90;;;2.25;;
61150;SDS011;47029;50.994;2.876;2022-10-26T13:44:32;9.88;;;2.33;;
61150;SDS011;47029;50.994;2.876;2022-10-26T13:47:08;8.35;;;2.33;;
61150;SDS011;47029;50.994;2.876;2022-10-26T13:49:37;8.50;;;2.40;;
61150;SDS011;47029;50.994;2.876;2022-10-26T13:52:13;7.53;;;2.12;;
61150;SDS011;47029;50.994;2.876;2022-10-26T13:54:56;8.93;;;2.58;;
61150;SDS011;47029;50.994;2.876;2022-10-26T14:02:47;9.30;;;2.40;;
61150;SDS011;47029;50.994;2.876;2022-10-26T14:05:16;8.77;;;2.58;;
61150;SDS011;47029;50.994;2.876;2022-10-26T14:12:58;8.35;;;2.45;;
61150;SDS011;47029;50.994;2.876;2022-10-26T14:15:28;7.37;;;2.40;;
61150;SDS011;47029;50.994;2.876;2022-10-26T14:17:59;8.00;;;2.22;;
61150;SDS011;47029;50.994;2.876;2022-10-26T14:20:26;9.70;;;2.58;;
61150;SDS011;47029;50.994;2.876;2022-10-26T14:22:56;8.63;;;2.47;;
61150;SDS011;47029;50.994;2.876;2022-10-26T14:25:23;10.13;;;2.58;;
61150;SDS011;47029;50.994;2.876;2022-10-26T14:27:53;11.27;;;2.87;;
61150;SDS011;47029;50.994;2.876;2022-10-26T14:30:20;10.40;;;2.60;;
61150;SDS011;47029;50.994;2.876;2022-10-26T14:32:56;7.87;;;2.33;;
61150;SDS011;47029;50.994;2.876;2022-10-26T14:35:30;10.02;;;2.90;;
61150;SDS011;47029;50.994;2.876;2022-10-26T14:38:09;10.05;;;2.40;;
61150;SDS011;47029;50.994;2.876;2022-10-26T14:40:56;11.85;;;2.60;;
61150;SDS011;47029;50.994;2.876;2022-10-26T14:43:24;8.80;;;2.25;;
61150;SDS011;47029;50.994;2.876;2022-10-26T14:45:51;7.85;;;2.40;;
61150;SDS011;47029;50.994;2.876;2022-10-26T14:51:02;10.43;;;2.90;;
61150;SDS011;47029;50.994;2.876;2022-10-26T14:53:50;12.43;;;3.20;;
61150;SDS011;47029;50.994;2.876;2022-10-26T14:56:25;11.75;;;4.15;;
61150;SDS011;47029;50.994;2.876;2022-10-26T14:59:11;27.75;;;12.18;;
61150;SDS011;47029;50.994;2.876;2022-10-26T15:01:54;9.57;;;2.78;;
61150;SDS011;47029;50.994;2.876;2022-10-26T15:04:36;11.68;;;4.78;;
61150;SDS011;47029;50.994;2.876;2022-10-26T15:09:44;10.27;;;3.70;;
61150;SDS011;47029;50.994;2.876;2022-10-26T15:17:49;9.43;;;3.10;;
61150;SDS011;47029;50.994;2.876;2022-10-26T15:20:26;10.73;;;2.95;;
61150;SDS011;47029;50.994;2.876;2022-10-26T15:22:55;10.10;;;2.70;;
61150;SDS011;47029;50.994;2.876;2022-10-26T15:25:28;9.57;;;2.85;;
61150;SDS011;47029;50.994;2.876;2022-10-26T15:28:08;11.02;;;3.28;;
61150;SDS011;47029;50.994;2.876;2022-10-26T15:30:35;7.75;;;2.87;;
61150;SDS011;47029;50.994;2.876;2022-10-26T15:33:20;11.23;;;3.62;;
61150;SDS011;47029;50.994;2.876;2022-10-26T15:35:46;7.80;;;2.90;;
61150;SDS011;47029;50.994;2.876;2022-10-26T15:38:14;9.63;;;2.95;;
61150;SDS011;47029;50.994;2.876;2022-10-26T15:40:41;12.13;;;3.20;;
61150;SDS011;47029;50.994;2.876;2022-10-26T15:43:09;10.30;;;3.17;;
61150;SDS011;47029;50.994;2.876;2022-10-26T15:45:44;7.75;;;2.45;;
61150;SDS011;47029;50.994;2.876;2022-10-26T15:48:25;10.13;;;2.85;;
61150;SDS011;47029;50.994;2.876;2022-10-26T15:50:56;10.57;;;2.85;;
61150;SDS011;47029;50.994;2.876;2022-10-26T15:53:24;9.30;;;2.75;;
61150;SDS011;47029;50.994;2.876;2022-10-26T15:55:55;10.30;;;3.10;;
61150;SDS011;47029;50.994;2.876;2022-10-26T15:58:23;10.27;;;2.80;;
61150;SDS011;47029;50.994;2.876;2022-10-26T16:00:50;9.48;;;2.85;;
61150;SDS011;47029;50.994;2.876;2022-10-26T16:03:22;8.93;;;2.40;;
61150;SDS011;47029;50.994;2.876;2022-10-26T16:05:50;9.02;;;2.80;;
61150;SDS011;47029;50.994;2.876;2022-10-26T16:08:27;10.55;;;2.80;;
61150;SDS011;47029;50.994;2.876;2022-10-26T16:10:55;8.38;;;2.87;;
61150;SDS011;47029;50.994;2.876;2022-10-26T16:13:21;11.20;;;3.40;;
61150;SDS011;47029;50.994;2.876;2022-10-26T16:15:47;16.48;;;7.50;;
61150;SDS011;47029;50.994;2.876;2022-10-26T16:18:13;22.67;;;13.32;;
61150;SDS011;47029;50.994;2.876;2022-10-26T16:20:39;26.25;;;14.90;;
61150;SDS011;47029;50.994;2.876;2022-10-26T16:23:06;12.82;;;7.28;;
61150;SDS011;47029;50.994;2.876;2022-10-26T16:25:38;10.27;;;3.62;;
61150;SDS011;47029;50.994;2.876;2022-10-26T16:28:06;11.60;;;3.80;;
61150;SDS011;47029;50.994;2.876;2022-10-26T16:30:34;12.23;;;4.47;;
61150;SDS011;47029;50.994;2.876;2022-10-26T16:33:00;11.77;;;4.20;;
61150;SDS011;47029;50.994;2.876;2022-10-26T16:35:26;8.50;;;3.15;;
61150;SDS011;47029;50.994;2.876;2022-10-26T16:37:52;13.02;;;3.60;;
61150;SDS011;47029;50.994;2.876;2022-10-26T16:40:18;10.15;;;3.45;;
61150;SDS011;47029;50.994;2.876;2022-10-26T16:42:45;10.18;;;3.85;;
61150;SDS011;47029;50.994;2.876;2022-10-26T16:45:11;9.38;;;3.25;;
61150;SDS011;47029;50.994;2.876;2022-10-26T16:47:37;10.43;;;3.90;;
61150;SDS011;47029;50.994;2.876;2022-10-26T16:50:04;11.15;;;4.05;;
61150;SDS011;47029;50.994;2.876;2022-10-26T16:52:31;13.00;;;4.90;;
61150;SDS011;47029;50.994;2.876;2022-10-26T16:54:58;10.65;;;4.12;;
61150;SDS011;47029;50.994;2.876;2022-10-26T16:57:23;12.55;;;4.05;;
61150;SDS011;47029;50.994;2.876;2022-10-26T16:59:49;11.45;;;3.37;;
61150;SDS011;47029;50.994;2.876;2022-10-26T17:02:15;10.18;;;3.03;;
61150;SDS011;47029;50.994;2.876;2022-10-26T17:04:41;9.75;;;3.60;;
61150;SDS011;47029;50.994;2.876;2022-10-26T17:07:07;9.63;;;3.10;;
61150;SDS011;47029;50.994;2.876;2022-10-26T17:09:35;9.43;;;3.17;;
61150;SDS011;47029;50.994;2.876;2022-10-26T17:12:01;10.05;;;3.30;;
61150;SDS011;47029;50.994;2.876;2022-10-26T17:14:28;9.73;;;3.12;;
61150;SDS011;47029;50.994;2.876;2022-10-26T17:16:53;11.38;;;3.30;;
61150;SDS011;47029;50.994;2.876;2022-10-26T17:19:19;13.55;;;3.40;;
61150;SDS011;47029;50.994;2.876;2022-10-26T17:21:45;13.43;;;3.80;;
61150;SDS011;47029;50.994;2.876;2022-10-26T17:24:10;10.27;;;3.58;;
61150;SDS011;47029;50.994;2.876;2022-10-26T17:26:37;9.52;;;4.03;;
61150;SDS011;47029;50.994;2.876;2022-10-26T17:29:04;11.30;;;4.60;;
61150;SDS011;47029;50.994;2.876;2022-10-26T17:31:30;15.93;;;7.07;;
61150;SDS011;47029;50.994;2.876;2022-10-26T17:33:56;14.10;;;4.93;;
61150;SDS011;47029;50.994;2.876;2022-10-26T17:36:23;14.70;;;4.32;;
61150;SDS011;47029;50.994;2.876;2022-10-26T17:38:51;13.05;;;5.65;;
61150;SDS011;47029;50.994;2.876;2022-10-26T17:41:19;10.43;;;4.28;;
61150;SDS011;47029;50.994;2.876;2022-10-26T17:43:46;11.50;;;4.32;;
61150;SDS011;47029;50.994;2.876;2022-10-26T17:46:14;11.15;;;4.03;;
61150;SDS011;47029;50.994;2.876;2022-10-26T17:48:42;13.60;;;5.90;;
61150;SDS011;47029;50.994;2.876;2022-10-26T17:51:10;14.15;;;5.53;;
61150;SDS011;47029;50.994;2.876;2022-10-26T17:53:38;12.50;;;5.53;;
61150;SDS011;47029;50.994;2.876;2022-10-26T17:58:31;11.32;;;3.72;;
61150;SDS011;47029;50.994;2.876;2022-10-26T18:00:59;12.13;;;4.50;;
61150;SDS011;47029;50.994;2.876;2022-10-26T18:03:26;11.48;;;4.05;;
61150;SDS011;47029;50.994;2.876;2022-10-26T18:05:53;9.38;;;4.07;;
61150;SDS011;47029;50.994;2.876;2022-10-26T18:08:19;10.23;;;4.20;;
61150;SDS011;47029;50.994;2.876;2022-10-26T18:10:49;11.70;;;4.20;;
61150;SDS011;47029;50.994;2.876;2022-10-26T18:13:16;10.90;;;4.20;;
61150;SDS011;47029;50.994;2.876;2022-10-26T18:15:43;12.27;;;4.95;;
61150;SDS011;47029;50.994;2.876;2022-10-26T18:18:09;12.13;;;4.57;;